Portada
METAR-TAF:

METAR-TAF

Aeroports :

Illizi, Algèria

latitud: 26-30N, longitud: 008-25E, altitud: 558 m

Observació

L'informe es va fer fa 34 minuts, a les 10:00 UTC
Vent 12 kt del Nord-Oest
Temperatura 41°C
Humitat 10%
Pressió 1012 hPa
Visibilitat: 8000 m

METAR: DAAP 051000Z 31012KT 8000 NSC 41/04 Q1012

Hora: 11:34 (10:34 UTC)

Pronòstic

L'informe es va fer fa 2 hores i 34 minuts, a les 08:00 UTC
Pronòstic vàlid del 05 a les 09 UTC al 05 a les 18 UTC
Vent 8 kt del Oest
Visibilitat: 8000 m

TAF: DAAP 050800Z 0509/0518 28008KT 8000 NSC

Observacions i pronòstics meteorològics de més de 4000 aeroports (METAR i TAF).

Les estacions disponibles són els punts grocs i vermells al mapa.

Posi el ratolí al punt desitjat per veure el nom de l'estació.

Feu clic per veure les observacions i els pronòstics meteorològics.

Per canviar el mapa: feu clic els botons verds amb una creu de color negre per apropar; al botó verd amb un guió per allunyar la imatge; o en les fletxes verdes per a mapes adjacents.


METAR-TAF: